createdAt,value
2023-05-13T00:29:24.953Z,5.27
2023-05-13T00:59:28.021Z,5.50
2023-05-13T01:29:31.205Z,7.13
2023-05-13T01:59:34.028Z,5.57
2023-05-13T02:29:37.684Z,5.20
2023-05-13T02:59:40.579Z,5.60
2023-05-13T03:29:44.407Z,5.80
2023-05-13T03:59:47.266Z,6.63
2023-05-13T04:29:50.624Z,6.57
2023-05-13T04:59:53.458Z,7.95
2023-05-13T05:29:57.198Z,4.43
2023-05-13T06:00:00.015Z,4.40
2023-05-13T06:30:03.332Z,3.55
2023-05-13T07:00:06.542Z,2.90
2023-05-13T07:30:09.521Z,2.80
2023-05-13T08:00:13.030Z,1.93
2023-05-13T08:30:15.998Z,2.27
2023-05-13T09:00:21.445Z,2.10
2023-05-13T09:30:25.206Z,2.40
2023-05-13T10:00:32.822Z,5.00
2023-05-13T10:30:36.870Z,2.90
2023-05-13T11:00:40.564Z,2.60
2023-05-13T11:30:43.696Z,2.23
2023-05-13T12:00:47.019Z,2.40
2023-05-13T12:30:50.173Z,3.23
2023-05-13T13:00:53.918Z,2.80
2023-05-13T13:30:57.134Z,2.40
2023-05-13T14:01:00.600Z,2.30
2023-05-13T14:31:03.895Z,2.70
2023-05-13T15:01:07.058Z,4.13
2023-05-13T15:31:10.172Z,3.67
2023-05-13T16:01:13.938Z,3.50
2023-05-13T16:31:17.215Z,3.87
2023-05-13T17:01:20.741Z,3.35
2023-05-13T17:31:24.103Z,3.30
2023-05-13T18:01:27.700Z,3.73
2023-05-13T18:31:32.721Z,3.93
2023-05-13T19:01:35.953Z,5.00
2023-05-13T19:31:39.188Z,6.50
2023-05-13T20:01:42.809Z,5.03
2023-05-13T20:31:46.096Z,24.30
2023-05-13T21:01:49.100Z,14.63
2023-05-13T21:31:52.990Z,14.20
2023-05-13T22:01:56.097Z,11.37
2023-05-13T22:31:59.809Z,14.50
2023-05-13T23:02:03.175Z,13.93
2023-05-13T23:32:07.109Z,12.90
